createdAt,value
2022-12-08T00:02:02.009Z,100627.56
2022-12-08T00:04:30.579Z,100627.72
2022-12-08T00:07:17.300Z,100627.72
2022-12-08T00:09:45.621Z,100625.94
2022-12-08T00:12:17.299Z,100615.50
2022-12-08T00:14:47.059Z,100609.91
2022-12-08T00:17:17.417Z,100605.47
2022-12-08T00:19:46.127Z,100615.13
2022-12-08T00:22:15.848Z,100603.41
2022-12-08T00:24:48.004Z,100604.72
2022-12-08T00:27:17.153Z,100597.50
2022-12-08T00:29:46.133Z,100602.81
2022-12-08T00:32:14.732Z,100595.50
2022-12-08T00:34:43.033Z,100599.00
2022-12-08T00:37:11.213Z,100601.78
2022-12-08T00:39:39.733Z,100602.53
2022-12-08T00:42:13.983Z,100603.28
2022-12-08T00:44:44.174Z,100593.06
2022-12-08T00:47:14.500Z,100594.66
2022-12-08T00:49:43.222Z,100603.69
2022-12-08T00:52:13.410Z,100608.69
2022-12-08T00:54:42.063Z,100597.50
2022-12-08T00:57:10.787Z,100607.44
2022-12-08T00:59:39.028Z,100607.53
2022-12-08T01:02:07.508Z,100616.94
2022-12-08T01:04:35.709Z,100617.31
2022-12-08T01:07:03.819Z,100616.28
2022-12-08T01:09:31.778Z,100618.38
2022-12-08T01:12:00.505Z,100627.16
2022-12-08T01:14:28.964Z,100615.78
2022-12-08T01:16:57.168Z,100616.34
2022-12-08T01:19:26.038Z,100622.72
2022-12-08T01:21:54.087Z,100610.88
2022-12-08T01:24:22.768Z,100610.56
2022-12-08T01:26:52.484Z,100605.38
2022-12-08T01:29:20.744Z,100615.59
2022-12-08T01:31:49.379Z,100612.94
2022-12-08T01:34:17.823Z,100612.75
2022-12-08T01:36:46.034Z,100613.72
2022-12-08T01:39:19.668Z,100608.59
2022-12-08T01:41:48.348Z,100605.66
2022-12-08T01:44:16.789Z,100605.84
2022-12-08T01:46:48.229Z,100602.16
2022-12-08T01:49:23.548Z,100610.28
2022-12-08T01:52:16.937Z,100601.88
2022-12-08T01:54:53.711Z,100601.78
2022-12-08T01:57:31.254Z,100592.88
2022-12-08T02:00:06.808Z,100597.44
2022-12-08T02:02:50.657Z,100592.78
2022-12-08T02:05:21.390Z,100597.88
2022-12-08T02:07:50.181Z,100582.81
2022-12-08T02:10:22.350Z,100580.56
2022-12-08T02:12:54.031Z,100572.19
2022-12-08T02:15:47.654Z,100573.94
2022-12-08T02:18:23.448Z,100579.03
2022-12-08T02:21:01.889Z,100579.69
2022-12-08T02:23:30.403Z,100570.78
2022-12-08T02:26:35.524Z,100570.13
2022-12-08T02:29:15.444Z,100563.88
2022-12-08T02:32:03.783Z,100554.97
2022-12-08T02:34:45.309Z,100559.97
2022-12-08T02:37:28.719Z,100553.63
2022-12-08T02:40:12.528Z,100553.41
2022-12-08T02:42:55.709Z,100549.53
2022-12-08T02:45:30.374Z,100550.28
2022-12-08T02:48:00.494Z,100553.78
2022-12-08T02:50:29.066Z,100555.69
2022-12-08T02:52:57.219Z,100553.34
2022-12-08T02:55:29.268Z,100554.56
2022-12-08T02:58:22.608Z,100550.22
2022-12-08T03:01:08.670Z,100551.34
2022-12-08T03:03:58.298Z,100555.16
2022-12-08T03:06:47.656Z,100555.25
2022-12-08T03:09:49.279Z,100546.19
2022-12-08T03:12:31.065Z,100544.22
2022-12-08T03:15:04.759Z,100557.34
2022-12-08T03:17:32.663Z,100552.41
2022-12-08T03:20:05.404Z,100549.88
2022-12-08T03:22:33.678Z,100547.34
2022-12-08T03:25:02.301Z,100548.06
2022-12-08T03:27:31.979Z,100546.84
2022-12-08T03:30:02.692Z,100539.69
2022-12-08T03:32:40.473Z,100535.59
2022-12-08T03:35:16.809Z,100532.47
2022-12-08T03:37:45.368Z,100529.38
2022-12-08T03:40:17.565Z,100534.31
2022-12-08T03:42:46.043Z,100521.72
2022-12-08T03:45:14.646Z,100512.59
2022-12-08T03:47:43.205Z,100520.47
2022-12-08T03:50:12.243Z,100530.50
2022-12-08T03:52:40.845Z,100528.88
2022-12-08T03:55:09.473Z,100519.41
2022-12-08T03:57:37.639Z,100521.47
2022-12-08T04:00:09.868Z,100521.41
2022-12-08T04:02:38.499Z,100524.63
2022-12-08T04:05:07.030Z,100521.00
2022-12-08T04:07:35.108Z,100519.19
2022-12-08T04:10:03.897Z,100519.78
2022-12-08T04:12:32.468Z,100523.22
2022-12-08T04:15:00.951Z,100522.25
2022-12-08T04:17:29.389Z,100527.56
2022-12-08T04:19:57.473Z,100524.63
2022-12-08T04:22:25.643Z,100519.41
2022-12-08T04:24:54.314Z,100517.44
2022-12-08T04:27:22.928Z,100516.69
2022-12-08T04:29:51.368Z,100513.88
2022-12-08T04:32:19.426Z,100507.34
2022-12-08T04:34:47.831Z,100502.44
2022-12-08T04:37:16.349Z,100503.53
2022-12-08T04:39:44.988Z,100490.19
2022-12-08T04:42:13.188Z,100491.63
2022-12-08T04:44:41.428Z,100496.63
2022-12-08T04:47:10.210Z,100498.03
2022-12-08T04:49:38.846Z,100503.16
2022-12-08T04:52:07.111Z,100507.22
2022-12-08T04:54:35.190Z,100521.69
2022-12-08T04:57:03.676Z,100517.06
2022-12-08T04:59:31.908Z,100517.81
2022-12-08T05:02:00.579Z,100511.66
2022-12-08T05:04:28.944Z,100511.47
2022-12-08T05:06:57.538Z,100511.53
2022-12-08T05:09:25.883Z,100512.19
2022-12-08T05:11:54.193Z,100507.63
2022-12-08T05:14:22.879Z,100506.16
2022-12-08T05:16:50.910Z,100512.91
2022-12-08T05:19:19.286Z,100518.28
2022-12-08T05:21:47.194Z,100512.03
2022-12-08T05:24:15.384Z,100508.53
2022-12-08T05:26:43.881Z,100520.69
2022-12-08T05:29:12.518Z,100504.31
2022-12-08T05:31:41.108Z,100507.59
2022-12-08T05:34:12.238Z,100501.00
2022-12-08T05:36:40.813Z,100500.78
2022-12-08T05:39:14.738Z,100503.84
2022-12-08T05:41:42.942Z,100499.88
2022-12-08T05:44:11.238Z,100501.00
2022-12-08T05:46:39.743Z,100508.75
2022-12-08T05:49:07.854Z,100504.88
2022-12-08T05:51:36.409Z,100504.75
2022-12-08T16:04:14.249Z,100341.28
2022-12-08T16:09:34.041Z,100331.94
2022-12-08T16:12:21.459Z,100339.13
2022-12-08T16:17:39.332Z,100346.38
2022-12-08T16:20:16.159Z,100354.78
2022-12-08T16:22:54.509Z,100350.59
2022-12-08T16:25:52.685Z,100346.41
2022-12-08T16:31:15.783Z,100336.63
2022-12-08T16:33:45.374Z,100323.94
2022-12-08T16:36:13.557Z,100321.16
2022-12-08T16:38:41.835Z,100328.19
2022-12-08T16:41:36.280Z,100323.72
2022-12-08T16:44:06.882Z,100313.91
2022-12-08T16:46:36.677Z,100325.19
2022-12-08T16:49:08.934Z,100320.72
2022-12-08T16:51:37.277Z,100318.66
2022-12-08T16:54:05.574Z,100321.31
2022-12-08T16:56:33.856Z,100331.00
2022-12-08T16:59:03.204Z,100329.19
2022-12-08T17:01:31.721Z,100339.81
2022-12-08T17:04:29.892Z,100344.31
2022-12-08T17:06:51.770Z,100335.69
2022-12-08T17:09:20.325Z,100342.00
2022-12-08T17:11:48.850Z,100334.97
2022-12-08T17:14:17.485Z,100329.53
2022-12-08T17:16:46.101Z,100342.09
2022-12-08T17:19:15.860Z,100345.72
2022-12-08T17:21:45.121Z,100339.44
2022-12-08T17:24:15.979Z,100332.31
2022-12-08T17:26:49.004Z,100332.19
2022-12-08T17:29:19.461Z,100329.41
2022-12-08T17:31:48.218Z,100339.97
2022-12-08T17:34:16.680Z,100331.97
2022-12-08T17:36:44.762Z,100332.81
2022-12-08T17:39:18.389Z,100324.94
2022-12-08T17:41:47.953Z,100331.22
2022-12-08T17:44:18.970Z,100331.22
2022-12-08T17:46:52.570Z,100330.38
2022-12-08T17:49:24.144Z,100332.19
2022-12-08T17:51:55.323Z,100327.94
2022-12-08T17:54:24.613Z,100327.09
2022-12-08T17:56:53.621Z,100326.25
2022-12-08T17:59:22.335Z,100331.56
2022-12-08T18:01:53.159Z,100328.06
2022-12-08T18:04:22.628Z,100328.41
2022-12-08T18:06:50.979Z,100332.16
2022-12-08T18:09:19.818Z,100337.59
2022-12-08T18:11:48.301Z,100342.78
2022-12-08T18:14:17.142Z,100341.09
2022-12-08T18:16:46.927Z,100357.06
2022-12-08T18:19:15.539Z,100338.31
2022-12-08T18:21:43.781Z,100340.88
2022-12-08T18:24:23.583Z,100347.88
2022-12-08T18:26:52.981Z,100348.72
2022-12-08T18:29:23.029Z,100343.41
2022-12-08T18:31:51.440Z,100345.44
2022-12-08T18:34:19.510Z,100357.06
2022-12-08T18:36:48.578Z,100345.56
2022-12-08T18:39:28.871Z,100342.06
2022-12-08T18:41:59.699Z,100346.41
2022-12-08T18:44:28.604Z,100335.78
2022-12-08T18:46:57.204Z,100340.25
2022-12-08T18:49:27.248Z,100343.88
2022-12-08T18:51:56.075Z,100351.97
2022-12-08T18:54:37.119Z,100352.94
2022-12-08T18:57:13.166Z,100350.28
2022-12-08T18:59:41.756Z,100355.50
2022-12-08T19:02:12.972Z,100360.91
2022-12-08T19:04:42.965Z,100348.47
2022-12-08T19:07:12.863Z,100332.50
2022-12-08T19:09:43.021Z,100330.69
2022-12-08T19:12:13.626Z,100338.66
2022-12-08T19:14:42.103Z,100339.53
2022-12-08T19:17:10.861Z,100337.72
2022-12-08T19:19:39.421Z,100328.91
2022-12-08T19:22:07.941Z,100327.94
2022-12-08T19:24:37.471Z,100331.44
2022-12-08T19:27:06.438Z,100326.09
2022-12-08T19:29:35.010Z,100318.97
2022-12-08T19:32:05.380Z,100321.75
2022-12-08T19:34:34.067Z,100326.09
2022-12-08T19:37:02.670Z,100325.13
2022-12-08T19:39:49.278Z,100320.66
2022-12-08T19:42:39.582Z,100325.97
2022-12-08T19:45:13.429Z,100316.19
2022-12-08T19:47:42.194Z,100326.81
2022-12-08T19:50:30.838Z,100323.31
2022-12-08T19:52:59.665Z,100326.81
2022-12-08T19:55:28.468Z,100330.47
2022-12-08T19:58:02.554Z,100332.16
2022-12-08T20:00:31.793Z,100337.47
2022-12-08T20:03:01.790Z,100339.28
2022-12-08T20:05:32.086Z,100342.06
2022-12-08T20:08:01.131Z,100332.28
2022-12-08T20:10:34.465Z,100337.72
2022-12-08T20:13:22.060Z,100332.41
2022-12-08T20:15:50.744Z,100323.44
2022-12-08T20:18:19.361Z,100315.59
2022-12-08T20:20:48.059Z,100319.09
2022-12-08T20:23:16.865Z,100318.25
2022-12-08T20:25:46.861Z,100325.50
2022-12-08T20:28:15.597Z,100329.97
2022-12-08T20:30:47.588Z,100317.63
2022-12-08T20:33:20.667Z,100322.09
2022-12-08T20:36:00.034Z,100318.59
2022-12-08T20:38:29.441Z,100324.78
2022-12-08T20:40:58.435Z,100317.72
2022-12-08T20:43:27.476Z,100316.78
2022-12-08T20:45:55.621Z,100313.16
2022-12-08T20:48:24.297Z,100315.69
2022-12-08T20:50:53.159Z,100309.53
2022-12-08T20:53:21.910Z,100302.66
2022-12-08T20:55:50.644Z,100315.81
2022-12-08T20:58:18.908Z,100303.50
2022-12-08T21:00:47.749Z,100315.81
2022-12-08T21:03:18.506Z,100314.00
2022-12-08T21:05:54.632Z,100308.69
2022-12-08T21:08:26.580Z,100309.53
2022-12-08T21:10:56.734Z,100308.56
2022-12-08T21:13:25.934Z,100317.38
2022-12-08T21:15:54.697Z,100318.34
2022-12-08T21:18:24.491Z,100316.53
2022-12-08T21:20:54.670Z,100316.53
2022-12-08T21:23:23.007Z,100327.31
2022-12-08T21:25:51.205Z,100324.16
2022-12-08T21:28:19.971Z,100320.63
2022-12-08T21:30:48.126Z,100323.31
2022-12-08T21:33:16.636Z,100332.97
2022-12-08T21:35:45.608Z,100330.44
2022-12-08T21:38:13.962Z,100326.81
2022-12-08T21:40:42.223Z,100332.97
2022-12-08T21:43:10.755Z,100329.47
2022-12-08T21:45:38.813Z,100330.31
2022-12-08T21:48:11.483Z,100332.97
2022-12-08T21:50:40.803Z,100333.81
2022-12-08T21:53:09.529Z,100336.34
2022-12-08T21:55:38.223Z,100337.22
2022-12-08T21:58:06.333Z,100337.22
2022-12-08T22:00:35.260Z,100340.81
2022-12-08T22:03:04.849Z,100337.22
2022-12-08T22:05:36.189Z,100337.22
2022-12-08T22:08:05.093Z,100336.25
2022-12-08T22:10:33.631Z,100336.34
2022-12-08T22:13:02.198Z,100331.28
2022-12-08T22:15:31.041Z,100334.66
2022-12-08T22:17:59.304Z,100330.53
2022-12-08T22:20:27.820Z,100333.31
2022-12-08T22:22:56.045Z,100342.13
2022-12-08T22:25:24.528Z,100337.78
2022-12-08T22:27:52.779Z,100335.34
2022-12-08T22:30:22.155Z,100330.16
2022-12-08T22:32:50.967Z,100334.38
2022-12-08T22:35:19.596Z,100337.03
2022-12-08T22:37:50.791Z,100333.53
2022-12-08T22:40:18.952Z,100331.72
2022-12-08T22:42:47.293Z,100332.56
2022-12-08T22:45:15.327Z,100335.13
2022-12-08T22:47:43.529Z,100332.47
2022-12-08T22:50:12.066Z,100330.78
2022-12-08T22:52:40.531Z,100331.72
2022-12-08T22:55:09.449Z,100321.94
2022-12-08T22:57:37.840Z,100330.03
2022-12-08T23:00:07.248Z,100328.22
2022-12-08T23:02:37.926Z,100329.19
2022-12-08T23:05:06.817Z,100325.69
2022-12-08T23:07:35.628Z,100325.69
2022-12-08T23:10:05.633Z,100325.69
2022-12-08T23:12:34.415Z,100318.53
2022-12-08T23:15:02.655Z,100324.84
2022-12-08T23:17:32.086Z,100325.06
2022-12-08T23:20:00.494Z,100325.19
2022-12-08T23:22:28.830Z,100314.41
2022-12-08T23:24:57.084Z,100323.38
2022-12-08T23:27:25.771Z,100322.41
2022-12-08T23:29:54.196Z,100326.88
2022-12-08T23:32:22.987Z,100309.94
2022-12-08T23:34:51.107Z,100306.56
2022-12-08T23:37:19.303Z,100300.63
2022-12-08T23:39:47.488Z,100299.34
2022-12-08T23:42:15.884Z,100292.47
2022-12-08T23:44:44.209Z,100293.78
2022-12-08T23:47:12.653Z,100288.47
2022-12-08T23:49:40.738Z,100286.75
2022-12-08T23:52:13.763Z,100294.50
2022-12-08T23:54:42.374Z,100290.03
2022-12-08T23:57:10.790Z,100291.97
2022-12-08T23:59:39.602Z,100287.34
